Time;durP1;ratioP1;P1;durP2;ratioP2;P2;SDS_P1;SDS_P2;PMS_P1;PMS_P2;Temp;Humidity;BMP_temperature;BMP_pressure;BME280_temperature;BME280_humidity;BME280_pressure;Samples;Min_cycle;Max_cycle;Signal;HPM_P1;HPM_P2
2023/08/04 00:00:46;;;;;;;1999.90;999.90;;;17.30;99.90;;;;;;5054799;28;20025;-76
2023/08/04 00:03:12;;;;;;;1999.90;999.90;;;17.30;99.90;;;;;;5038620;28;20556;-76
2023/08/04 00:05:38;;;;;;;1999.90;999.90;;;17.30;99.90;;;;;;5034837;28;20083;-70
2023/08/04 00:08:03;;;;;;;1999.90;999.90;;;17.30;99.90;;;;;;5017074;28;20026;-70
2023/08/04 00:10:29;;;;;;;1999.90;999.90;;;17.30;99.90;;;;;;5034991;28;20059;-70
2023/08/04 00:12:54;;;;;;;1999.90;999.90;;;17.30;99.90;;;;;;5034601;28;20022;-77
2023/08/04 00:15:20;;;;;;;1999.90;999.90;;;17.30;99.90;;;;;;5034733;28;20037;-70
2023/08/04 00:17:46;;;;;;;1999.90;999.90;;;17.20;99.90;;;;;;5016813;28;20022;-70
2023/08/04 00:20:11;;;;;;;1999.90;999.90;;;17.20;99.90;;;;;;5034172;28;20052;-70
2023/08/04 00:22:38;;;;;;;1999.90;999.90;;;17.20;99.90;;;;;;5034547;28;20040;-70
2023/08/04 00:25:04;;;;;;;1999.90;999.90;;;17.20;99.90;;;;;;5034898;28;20431;-70
2023/08/04 00:27:29;;;;;;;1999.90;999.90;;;17.10;99.90;;;;;;5034270;28;20021;-70
2023/08/04 00:29:55;;;;;;;1999.90;999.90;;;17.10;99.90;;;;;;5033619;28;20025;-70
2023/08/04 00:32:22;;;;;;;1999.90;999.90;;;17.10;99.90;;;;;;5033287;28;20037;-70
2023/08/04 00:34:47;;;;;;;1999.90;999.90;;;17.10;99.90;;;;;;5034036;28;20037;-70
2023/08/04 00:37:13;;;;;;;1999.90;999.90;;;17.00;99.90;;;;;;5034349;28;20028;-70
2023/08/04 00:39:38;;;;;;;1999.90;999.90;;;17.00;99.90;;;;;;5034707;28;20033;-69
2023/08/04 00:42:04;;;;;;;1999.90;999.90;;;16.90;99.90;;;;;;5034091;28;20080;-70
2023/08/04 00:44:30;;;;;;;1999.90;999.90;;;16.90;99.90;;;;;;5034215;28;20129;-70
2023/08/04 00:46:56;;;;;;;1999.90;999.90;;;16.90;99.90;;;;;;5034009;28;20030;-70
2023/08/04 00:49:22;;;;;;;1999.90;999.90;;;16.90;99.90;;;;;;5034055;28;20095;-70
2023/08/04 00:51:48;;;;;;;1999.90;999.90;;;16.90;99.90;;;;;;5033921;28;20476;-76
2023/08/04 00:54:14;;;;;;;1999.90;999.90;;;16.90;99.90;;;;;;5034111;28;20033;-75
2023/08/04 00:56:39;;;;;;;1999.90;999.90;;;16.90;99.90;;;;;;5033284;28;20026;-70
2023/08/04 00:59:06;;;;;;;1999.90;999.90;;;16.90;99.90;;;;;;5033934;28;20026;-70
2023/08/04 01:01:31;;;;;;;1999.90;999.90;;;17.00;99.90;;;;;;5033736;28;20049;-70
2023/08/04 01:03:58;;;;;;;1999.90;999.90;;;17.00;99.90;;;;;;5016134;28;20471;-70
2023/08/04 01:06:49;;;;;;;1999.90;999.90;;;17.00;99.90;;;;;;5033730;28;20013;-70
2023/08/04 01:09:39;;;;;;;1999.90;999.90;;;17.00;99.90;;;;;;5015720;28;20021;-70
2023/08/04 01:12:12;;;;;;;1999.90;999.90;;;16.90;99.90;;;;;;4996201;28;20057;-70
2023/08/04 01:14:41;;;;;;;1999.90;999.90;;;16.90;99.90;;;;;;5013925;28;20029;-70
2023/08/04 01:17:30;;;;;;;1999.90;999.90;;;16.90;99.90;;;;;;5013437;28;20033;-70
2023/08/04 01:19:56;;;;;;;1999.90;999.90;;;16.90;99.90;;;;;;5013802;28;20034;-76
2023/08/04 01:22:23;;;;;;;1999.90;999.90;;;16.80;99.90;;;;;;5020304;28;20484;-70
2023/08/04 01:24:53;;;;;;;1999.90;999.90;;;16.80;99.90;;;;;;5033443;28;20492;-70
2023/08/04 01:27:46;;;;;;;1999.90;999.90;;;16.80;99.90;;;;;;5015475;28;20397;-70
2023/08/04 01:30:18;;;;;;;1999.90;999.90;;;16.80;99.90;;;;;;5014781;28;20040;-70
2023/08/04 01:32:44;;;;;;;1999.90;999.90;;;16.70;99.90;;;;;;5033272;28;20057;-70
2023/08/04 01:35:10;;;;;;;1999.90;999.90;;;16.80;99.90;;;;;;5015065;28;20089;-70
2023/08/04 01:37:36;;;;;;;1999.90;999.90;;;16.80;99.90;;;;;;5033119;28;20064;-70
2023/08/04 01:40:02;;;;;;;1999.90;999.90;;;16.80;99.90;;;;;;5033336;28;20033;-76
2023/08/04 01:42:27;;;;;;;1999.90;999.90;;;16.80;99.90;;;;;;5033117;28;20025;-70
2023/08/04 01:44:53;;;;;;;1999.90;999.90;;;16.70;99.90;;;;;;5032956;28;20443;-76
2023/08/04 01:47:19;;;;;;;1999.90;999.90;;;16.80;99.90;;;;;;5015107;28;20048;-70
2023/08/04 01:49:45;;;;;;;1999.90;999.90;;;16.80;99.90;;;;;;5033172;28;20105;-70
2023/08/04 01:52:11;;;;;;;1999.90;999.90;;;16.80;99.90;;;;;;5015194;28;20025;-70
2023/08/04 01:54:37;;;;;;;1999.90;999.90;;;16.70;99.90;;;;;;5033166;28;20033;-70
2023/08/04 01:57:03;;;;;;;1999.90;999.90;;;16.70;99.90;;;;;;5032970;28;20109;-76
2023/08/04 01:59:28;;;;;;;1999.90;999.90;;;16.70;99.90;;;;;;5032750;28;20108;-74
2023/08/04 02:01:54;;;;;;;1999.90;999.90;;;16.80;99.90;;;;;;5033045;28;20068;-70
2023/08/04 02:04:19;;;;;;;1999.90;999.90;;;16.70;99.90;;;;;;5032867;28;20021;-70
2023/08/04 02:06:45;;;;;;;1999.90;999.90;;;16.70;99.90;;;;;;5015070;28;20025;-70
2023/08/04 02:09:12;;;;;;;1999.90;999.90;;;16.70;99.90;;;;;;5033076;28;20100;-70
2023/08/04 02:11:37;;;;;;;1999.90;999.90;;;16.70;99.90;;;;;;5032557;28;20117;-76
2023/08/04 02:14:03;;;;;;;1999.90;999.90;;;16.70;99.90;;;;;;5037032;28;20517;-70
2023/08/04 02:16:29;;;;;;;1999.90;999.90;;;16.60;99.90;;;;;;5032932;28;20022;-70
2023/08/04 02:19:02;;;;;;;1999.90;999.90;;;16.60;99.90;;;;;;5032724;28;20029;-70
2023/08/04 02:21:27;;;;;;;;;;;16.60;99.90;;;;;;5015216;28;20381;-70
2023/08/04 02:23:53;;;;;;;1999.90;999.90;;;16.50;99.90;;;;;;5032503;28;19912;-76
2023/08/04 02:26:18;;;;;;;1999.90;999.90;;;16.50;99.90;;;;;;5032791;28;20476;-76
2023/08/04 02:28:44;;;;;;;1999.90;999.90;;;16.40;99.90;;;;;;5031814;28;20029;-70
2023/08/04 02:31:10;;;;;;;1999.90;999.90;;;16.40;99.90;;;;;;5014640;28;20558;-70
2023/08/04 02:33:35;;;;;;;1999.90;999.90;;;16.40;99.90;;;;;;5032442;28;20025;-70
2023/08/04 02:36:01;;;;;;;1999.90;999.90;;;16.40;99.90;;;;;;5014600;28;20033;-76
2023/08/04 02:38:27;;;;;;;1999.90;999.90;;;16.30;99.90;;;;;;5032623;28;20025;-70
2023/08/04 02:40:53;;;;;;;1999.90;999.90;;;16.30;99.90;;;;;;5014742;28;20047;-70
2023/08/04 02:43:19;;;;;;;1999.90;999.90;;;16.30;99.90;;;;;;5014670;28;20080;-70
2023/08/04 02:45:51;;;;;;;1999.90;999.90;;;16.30;99.90;;;;;;5032778;28;20029;-69
2023/08/04 02:48:16;;;;;;;1999.90;999.90;;;16.30;99.90;;;;;;5032602;28;20092;-69
2023/08/04 02:50:42;;;;;;;1999.90;999.90;;;16.40;99.90;;;;;;5014475;28;20117;-70
2023/08/04 02:53:08;;;;;;;1999.90;999.90;;;16.40;99.90;;;;;;5032505;28;20500;-76
2023/08/04 02:55:33;;;;;;;1999.90;999.90;;;16.40;99.90;;;;;;5036427;28;20492;-70
2023/08/04 02:57:59;;;;;;;1999.90;999.90;;;16.40;99.90;;;;;;5038461;28;20033;-70
2023/08/04 03:00:28;;;;;;;1999.90;999.90;;;16.40;99.90;;;;;;5055969;28;20029;-70
2023/08/04 03:02:53;;;;;;;1999.90;999.90;;;16.40;99.90;;;;;;5024544;28;20044;-70
2023/08/04 03:05:19;;;;;;;1999.90;999.90;;;16.40;99.90;;;;;;5035327;28;20468;-70
2023/08/04 03:07:44;;;;;;;1999.90;999.90;;;16.30;99.90;;;;;;5036086;28;20148;-70
2023/08/04 03:10:10;;;;;;;1999.90;999.90;;;16.30;99.90;;;;;;5036093;28;20107;-70
2023/08/04 03:12:36;;;;;;;1999.90;999.90;;;16.30;99.90;;;;;;5036049;28;20040;-70
2023/08/04 03:15:02;;;;;;;1999.90;999.90;;;16.30;99.90;;;;;;5035731;28;20036;-76
2023/08/04 03:17:28;;;;;;;1999.90;999.90;;;16.30;99.90;;;;;;5036068;28;20026;-76
2023/08/04 03:19:54;;;;;;;1999.90;999.90;;;16.40;99.90;;;;;;5035647;28;20108;-69
2023/08/04 03:22:19;;;;;;;1999.90;999.90;;;16.40;99.90;;;;;;5034921;28;20564;-70
2023/08/04 03:24:45;;;;;;;1999.90;999.90;;;16.30;99.90;;;;;;5035750;28;20033;-70
2023/08/04 03:27:10;;;;;;;1999.90;999.90;;;16.30;99.90;;;;;;5034990;28;20029;-70
2023/08/04 03:29:36;;;;;;;1999.90;999.90;;;16.30;99.90;;;;;;5016613;28;20017;-70
2023/08/04 03:32:02;;;;;;;1999.90;999.90;;;16.30;99.90;;;;;;5035531;28;20109;-71
2023/08/04 03:34:28;;;;;;;1999.90;999.90;;;16.30;99.90;;;;;;5035356;28;20028;-70
2023/08/04 03:36:54;;;;;;;1999.90;999.90;;;16.30;99.90;;;;;;5035681;28;20022;-70
2023/08/04 03:39:19;;;;;;;1999.90;999.90;;;16.30;99.90;;;;;;5035680;28;20431;-70
2023/08/04 03:41:45;;;;;;;1999.90;999.90;;;16.30;99.90;;;;;;5035593;28;20037;-76
2023/08/04 03:44:11;;;;;;;1999.90;999.90;;;16.30;99.90;;;;;;5017287;28;20087;-70
2023/08/04 03:46:36;;;;;;;1999.90;999.90;;;16.30;99.90;;;;;;5035357;28;20013;-70
2023/08/04 03:49:02;;;;;;;1999.90;999.90;;;16.20;99.90;;;;;;5035472;28;20487;-70
2023/08/04 03:51:28;;;;;;;1999.90;999.90;;;16.30;99.90;;;;;;5035025;28;20040;-70
2023/08/04 03:53:53;;;;;;;1999.90;999.90;;;16.20;99.90;;;;;;5017354;28;20029;-76
2023/08/04 03:56:19;;;;;;;1999.90;999.90;;;16.20;99.90;;;;;;5035182;28;20025;-76
2023/08/04 03:58:44;;;;;;;1999.90;999.90;;;16.30;99.90;;;;;;5035013;28;20041;-70
2023/08/04 04:01:10;;;;;;;1999.90;999.90;;;16.30;99.90;;;;;;5035003;28;20104;-70
2023/08/04 04:03:36;;;;;;;1999.90;999.90;;;16.20;99.90;;;;;;5017279;28;20401;-70
2023/08/04 04:06:01;;;;;;;1999.90;999.90;;;16.20;99.90;;;;;;5034907;28;20075;-69
2023/08/04 04:08:27;;;;;;;1999.90;999.90;;;16.20;99.90;;;;;;5016831;28;20030;-76
2023/08/04 04:10:55;;;;;;;1999.90;999.90;;;16.20;99.90;;;;;;5034666;28;20029;-70
2023/08/04 04:13:21;;;;;;;1999.90;999.90;;;16.20;99.90;;;;;;5034697;28;20495;-70
2023/08/04 04:15:47;;;;;;;1999.90;999.90;;;16.20;99.90;;;;;;5034939;28;20392;-70
2023/08/04 04:18:12;;;;;;;1999.90;999.90;;;16.20;99.90;;;;;;5017067;28;20032;-70
2023/08/04 04:20:38;;;;;;;1999.90;999.90;;;16.20;99.90;;;;;;5034609;28;20112;-77
2023/08/04 04:23:03;;;;;;;1999.90;999.90;;;16.10;99.90;;;;;;5034491;28;20087;-70
2023/08/04 04:25:29;;;;;;;1999.90;999.90;;;16.10;99.90;;;;;;5034452;28;20060;-70
2023/08/04 04:27:55;;;;;;;1999.90;999.90;;;16.00;99.90;;;;;;5016778;28;20022;-70
2023/08/04 04:30:20;;;;;;;1999.90;999.90;;;16.00;99.90;;;;;;5033723;28;20029;-70
2023/08/04 04:32:46;;;;;;;1999.90;999.90;;;15.90;99.90;;;;;;5016707;28;20029;-70
2023/08/04 04:35:11;;;;;;;1999.90;999.90;;;15.90;99.90;;;;;;5034079;28;20021;-76
2023/08/04 04:37:37;;;;;;;1999.90;999.90;;;15.80;99.90;;;;;;5034235;28;20084;-70
2023/08/04 04:40:03;;;;;;;1999.90;999.90;;;15.80;99.90;;;;;;5034338;28;20021;-70
2023/08/04 04:42:31;;;;;;;1999.90;999.90;;;15.80;99.90;;;;;;5034248;28;20404;-70
2023/08/04 04:44:56;;;;;;;1999.90;999.90;;;15.70;99.90;;;;;;5034222;28;20025;-70
2023/08/04 04:47:22;;;;;;;1999.90;999.90;;;15.60;99.90;;;;;;5033558;28;20032;-69
2023/08/04 04:49:48;;;;;;;1999.90;999.90;;;15.60;99.90;;;;;;5034163;28;20022;-70
2023/08/04 04:52:28;;;;;;;1999.90;999.90;;;15.60;99.90;;;;;;5033995;28;20104;-69
2023/08/04 04:54:53;;;;;;;1999.90;999.90;;;15.50;99.90;;;;;;5034234;28;20443;-70
2023/08/04 04:57:19;;;;;;;1999.90;999.90;;;15.50;99.90;;;;;;5034113;28;20025;-69
2023/08/04 04:59:44;;;;;;;1999.90;999.90;;;15.50;99.90;;;;;;5034035;28;20112;-76
2023/08/04 05:02:10;;;;;;;1999.90;999.90;;;15.50;99.90;;;;;;5016112;28;20025;-76
2023/08/04 05:04:35;;;;;;;1999.90;999.90;;;15.40;99.90;;;;;;5033682;28;20029;-70
2023/08/04 05:07:01;;;;;;;1999.90;999.90;;;15.40;99.90;;;;;;5016035;28;20033;-69
2023/08/04 05:09:27;;;;;;;1999.90;999.90;;;15.40;99.90;;;;;;5033871;28;20029;-69
2023/08/04 05:11:52;;;;;;;1999.90;999.90;;;15.40;99.90;;;;;;5014059;28;20064;-69
2023/08/04 05:14:18;;;;;;;1999.90;999.90;;;15.40;99.90;;;;;;5013297;28;20030;-76
2023/08/04 05:16:45;;;;;;;1999.90;999.90;;;15.40;99.90;;;;;;5013763;28;20037;-70
2023/08/04 05:19:10;;;;;;;1999.90;999.90;;;15.40;99.90;;;;;;5012936;28;20145;-70
2023/08/04 05:21:36;;;;;;;1999.90;999.90;;;15.30;99.90;;;;;;5014024;28;20117;-70
2023/08/04 05:24:02;;;;;;;1999.90;999.90;;;15.30;99.90;;;;;;5032712;28;20026;-70
2023/08/04 05:26:27;;;;;;;1999.90;999.90;;;15.30;99.90;;;;;;5033203;28;20025;-70
2023/08/04 05:28:53;;;;;;;1999.90;999.90;;;15.40;99.90;;;;;;5014641;28;20021;-70
2023/08/04 05:31:18;;;;;;;1999.90;999.90;;;15.40;99.90;;;;;;5032814;28;20480;-70
2023/08/04 05:33:44;;;;;;;1999.90;999.90;;;15.50;99.90;;;;;;5033470;28;20040;-70
2023/08/04 05:36:09;;;;;;;1999.90;999.90;;;15.50;99.90;;;;;;5015269;28;20026;-69
2023/08/04 05:38:35;;;;;;;1999.90;999.90;;;15.70;99.90;;;;;;5031780;28;20379;-76
2023/08/04 05:41:01;;;;;;;1999.90;999.90;;;15.80;99.90;;;;;;5015011;28;20045;-76
2023/08/04 05:43:27;;;;;;;1999.90;999.90;;;15.90;99.90;;;;;;5014825;28;20049;-70
2023/08/04 05:45:54;;;;;;;1999.90;999.90;;;16.00;99.90;;;;;;5013157;28;20075;-70
2023/08/04 05:48:19;;;;;;;1999.90;999.90;;;16.10;99.90;;;;;;5038521;28;20017;-70
2023/08/04 05:50:45;;;;;;;1999.90;999.90;;;16.20;99.90;;;;;;5052776;28;20039;-76
2023/08/04 05:53:10;;;;;;;1999.90;999.90;;;16.20;99.90;;;;;;5052882;28;20029;-75
2023/08/04 05:55:36;;;;;;;1999.90;999.90;;;16.30;99.90;;;;;;5052717;28;20036;-70
2023/08/04 05:58:02;;;;;;;1999.90;999.90;;;16.20;99.90;;;;;;5034556;28;20029;-70
2023/08/04 06:00:29;;;;;;;1999.90;999.90;;;16.20;99.90;;;;;;5034388;28;20029;-70
2023/08/04 06:02:55;;;;;;;1999.90;999.90;;;16.20;99.90;;;;;;5039013;28;20025;-71
2023/08/04 06:05:21;;;;;;;1999.90;999.90;;;16.20;99.90;;;;;;5032476;28;20037;-70
2023/08/04 06:07:49;;;;;;;1999.90;999.90;;;16.20;99.90;;;;;;5031905;28;20048;-70
2023/08/04 06:10:19;;;;;;;1999.90;999.90;;;16.30;99.90;;;;;;5032381;28;20503;-70
2023/08/04 06:12:45;;;;;;;1999.90;999.90;;;16.30;99.90;;;;;;5014705;28;20037;-70
2023/08/04 06:15:12;;;;;;;1999.90;999.90;;;16.30;99.90;;;;;;5032471;28;20407;-70
2023/08/04 06:17:38;;;;;;;1999.90;999.90;;;16.40;99.90;;;;;;5032882;28;20017;-77
2023/08/04 06:20:04;;;;;;;1999.90;999.90;;;16.50;99.90;;;;;;5032334;28;20035;-77
2023/08/04 06:22:30;;;;;;;1999.90;999.90;;;16.50;99.90;;;;;;5014078;28;20021;-70
2023/08/04 06:24:56;;;;;;;1999.90;999.90;;;16.50;99.90;;;;;;5032435;28;20032;-70
2023/08/04 06:27:21;;;;;;;1999.90;999.90;;;16.60;99.90;;;;;;5032195;28;20030;-71
2023/08/04 06:29:47;;;;;;;1999.90;999.90;;;16.70;99.90;;;;;;5033387;28;20017;-71
2023/08/04 06:32:13;;;;;;;1999.90;999.90;;;16.90;99.90;;;;;;5036586;28;20369;-70
2023/08/04 06:34:38;;;;;;;1999.90;999.90;;;17.20;99.90;;;;;;5018626;28;20022;-71
2023/08/04 06:37:04;;;;;;;1999.90;999.90;;;17.40;99.90;;;;;;5036187;28;20132;-70
2023/08/04 06:39:30;;;;;;;1999.90;999.90;;;17.50;99.90;;;;;;5036546;28;20080;-71
2023/08/04 06:41:56;;;;;;;1999.90;999.90;;;17.80;99.90;;;;;;5018654;28;20108;-71
2023/08/04 06:44:21;;;;;;;1999.90;999.90;;;17.80;99.90;;;;;;5036092;28;20038;-70
2023/08/04 06:46:47;;;;;;;1999.90;999.90;;;17.90;99.90;;;;;;5036205;28;20021;-71
2023/08/04 06:49:13;;;;;;;1999.90;999.90;;;17.70;99.90;;;;;;5035777;28;20025;-70
2023/08/04 06:51:38;;;;;;;1999.90;999.90;;;17.60;99.90;;;;;;5036149;28;20037;-71
2023/08/04 06:54:04;;;;;;;1999.90;999.90;;;17.50;99.90;;;;;;5036164;28;20017;-70
2023/08/04 06:56:29;;;;;;;1999.90;999.90;;;17.50;99.90;;;;;;5017070;28;20037;-77
2023/08/04 06:58:55;;;;;;;1999.90;999.90;;;17.60;99.90;;;;;;5035797;28;20014;-70
2023/08/04 07:01:20;;;;;;;1999.90;999.90;;;17.70;99.90;;;;;;5035285;28;20037;-70
2023/08/04 07:03:49;;;;;;;1999.90;999.90;;;18.10;99.90;;;;;;5035815;28;20025;-70
2023/08/04 07:06:15;;;;;;;1999.90;999.90;;;18.40;99.90;;;;;;5035665;28;20029;-70
2023/08/04 07:08:41;;;;;;;1999.90;999.90;;;18.40;99.90;;;;;;5035731;28;20024;-77
2023/08/04 07:11:17;;;;;;;1999.90;999.90;;;18.20;99.90;;;;;;5033425;28;20503;-70
2023/08/04 07:13:44;;;;;;;1999.90;999.90;;;18.10;99.90;;;;;;5037129;28;20022;-71
2023/08/04 07:16:10;;;;;;;1999.90;999.90;;;18.10;99.90;;;;;;5036839;28;20033;-71
2023/08/04 07:18:36;;;;;;;1999.90;999.90;;;18.00;99.90;;;;;;5051176;28;20388;-70
2023/08/04 07:21:10;;;;;;;1999.90;999.90;;;17.80;99.90;;;;;;5020572;28;20524;-70
2023/08/04 07:23:36;;;;;;;1999.90;999.90;;;17.80;99.90;;;;;;5036429;28;20115;-70
2023/08/04 07:26:03;;;;;;;1999.90;999.90;;;17.90;99.90;;;;;;5037631;28;20037;-77
2023/08/04 07:28:29;;;;;;;1999.90;999.90;;;17.90;99.90;;;;;;5033415;28;20029;-71
2023/08/04 07:30:55;;;;;;;1999.90;999.90;;;18.00;99.90;;;;;;5032820;28;20034;-70
2023/08/04 07:33:22;;;;;;;1999.90;999.90;;;18.10;99.90;;;;;;5034859;28;20057;-71
2023/08/04 07:35:55;;;;;;;1999.90;999.90;;;18.30;99.90;;;;;;5034432;28;20033;-71
2023/08/04 07:38:22;;;;;;;1999.90;999.90;;;18.40;99.90;;;;;;5035092;28;20029;-78
2023/08/04 07:40:47;;;;;;;1999.90;999.90;;;18.40;99.90;;;;;;5034843;28;20042;-70
2023/08/04 07:43:13;;;;;;;1999.90;999.90;;;18.30;99.90;;;;;;5033938;28;20052;-71
2023/08/04 07:45:40;;;;;;;1999.90;999.90;;;18.30;99.90;;;;;;5034315;28;20025;-71
2023/08/04 07:48:05;;;;;;;1999.90;999.90;;;18.40;99.90;;;;;;5016922;28;20117;-71
2023/08/04 07:50:31;;;;;;;1999.90;999.90;;;18.50;99.90;;;;;;5034452;28;20105;-78
2023/08/04 07:52:57;;;;;;;1999.90;999.90;;;18.60;99.90;;;;;;5035304;28;20033;-71
2023/08/04 07:55:23;;;;;;;1999.90;999.90;;;18.80;99.90;;;;;;5016557;28;20022;-71
2023/08/04 07:57:48;;;;;;;1999.90;999.90;;;19.00;99.90;;;;;;5034433;28;20036;-71
2023/08/04 08:00:14;;;;;;;1999.90;999.90;;;19.40;99.90;;;;;;5016575;28;20053;-71
2023/08/04 08:02:40;;;;;;;1999.90;999.90;;;19.50;99.90;;;;;;5016555;28;20484;-71
2023/08/04 08:05:07;;;;;;;1999.90;999.90;;;19.60;99.90;;;;;;5034214;28;20026;-77
2023/08/04 08:07:34;;;;;;;1999.90;999.90;;;19.80;99.90;;;;;;5016381;28;20026;-71
2023/08/04 08:09:59;;;;;;;1999.90;999.90;;;19.80;99.90;;;;;;5034135;28;20025;-71
2023/08/04 08:12:25;;;;;;;1999.90;999.90;;;19.60;99.90;;;;;;5034263;28;20172;-71
2023/08/04 08:14:51;;;;;;;1999.90;999.90;;;19.80;99.90;;;;;;5016675;28;20037;-71
2023/08/04 08:17:16;;;;;;;1999.90;999.90;;;19.90;99.90;;;;;;5033199;28;20076;-77
2023/08/04 08:19:42;;;;;;;1999.90;999.90;;;20.00;99.90;;;;;;5034072;28;20067;-71
2023/08/04 08:22:08;;;;;;;1999.90;999.90;;;20.00;99.90;;;;;;5015987;28;20309;-71
2023/08/04 08:24:34;;;;;;;1999.90;999.90;;;20.00;99.90;;;;;;5034200;28;20093;-71
2023/08/04 08:26:59;;;;;;;1999.90;999.90;;;20.00;99.90;;;;;;5033815;28;20029;-70
2023/08/04 08:29:25;;;;;;;1999.90;999.90;;;20.20;99.90;;;;;;5033712;28;20092;-77
2023/08/04 08:31:51;;;;;;;1999.90;999.90;;;20.30;99.90;;;;;;5033644;28;20045;-71
2023/08/04 08:34:16;;;;;;;1999.90;999.90;;;20.30;99.90;;;;;;5033476;28;20037;-71
2023/08/04 08:36:42;;;;;;;1999.90;999.90;;;20.70;99.90;;;;;;5033587;28;20026;-71
2023/08/04 08:39:07;;;;;;;1999.90;999.90;;;21.30;99.90;;;;;;5016162;28;20087;-71
2023/08/04 08:41:33;;;;;;;1999.90;999.90;;;22.00;99.90;;;;;;5015452;28;20065;-71
2023/08/04 08:43:59;;;;;;;1999.90;999.90;;;22.00;99.90;;;;;;5033673;28;20041;-71
2023/08/04 08:46:25;;;;;;;1999.90;999.90;;;22.10;99.90;;;;;;5033176;28;20021;-71
2023/08/04 08:48:57;;;;;;;1999.90;999.90;;;22.00;99.90;;;;;;5033738;28;20041;-71
2023/08/04 08:51:23;;;;;;;1999.90;999.90;;;21.70;99.90;;;;;;5033139;28;20068;-71
2023/08/04 08:53:49;;;;;;;1999.90;999.90;;;21.80;99.90;;;;;;5032272;28;20488;-77
2023/08/04 08:56:16;;;;;;;1999.90;999.90;;;21.80;99.90;;;;;;5015891;28;20033;-77
2023/08/04 08:58:42;;;;;;;1999.90;999.90;;;21.50;99.90;;;;;;5032924;28;20037;-71
2023/08/04 09:01:08;;;;;;;1999.90;999.90;;;21.60;99.90;;;;;;5015406;28;20022;-71
2023/08/04 09:03:35;;;;;;;1999.90;999.90;;;21.40;99.90;;;;;;5033102;28;20021;-71
2023/08/04 09:06:02;;;;;;;1999.90;999.90;;;21.30;99.90;;;;;;5034475;28;20026;-77
2023/08/04 09:08:27;;;;;;;1999.90;999.90;;;21.20;99.90;;;;;;5039466;28;20032;-71
2023/08/04 09:10:53;;;;;;;1999.90;999.90;;;21.10;99.90;;;;;;5034776;28;20442;-71
2023/08/04 09:13:19;;;;;;;1999.90;999.90;;;21.20;99.90;;;;;;5014946;28;20056;-71
2023/08/04 09:15:50;;;;;;;1999.90;999.90;;;21.20;99.90;;;;;;5033429;28;20079;-70
2023/08/04 09:18:26;;;;;;;1999.90;999.90;;;21.10;99.90;;;;;;5032779;28;20038;-71
2023/08/04 09:21:13;;;;;;;1999.90;999.90;;;21.10;99.90;;;;;;5032131;28;20555;-70
2023/08/04 09:23:43;;;;;;;1999.90;999.90;;;21.20;99.90;;;;;;5034199;28;20058;-71
2023/08/04 09:26:09;;;;;;;1999.90;999.90;;;21.20;99.90;;;;;;5032856;28;20396;-70
2023/08/04 09:28:34;;;;;;;1999.90;999.90;;;21.50;99.90;;;;;;5031837;28;20026;-71
2023/08/04 09:31:01;;;;;;;1999.90;999.90;;;21.90;99.90;;;;;;5035854;28;20032;-69
2023/08/04 09:33:27;;;;;;;1999.90;999.90;;;21.80;99.90;;;;;;5016332;28;20483;-71
2023/08/04 09:36:06;;;;;;;1999.90;999.90;;;22.20;99.90;;;;;;5017170;28;20065;-71
2023/08/04 09:38:33;;;;;;;1999.90;999.90;;;22.40;99.90;;;;;;5032650;28;20036;-71
2023/08/04 09:41:04;;;;;;;1999.90;999.90;;;22.80;99.90;;;;;;5023107;28;20054;-70
2023/08/04 09:43:30;;;;;;;1999.90;999.90;;;22.90;99.90;;;;;;5036243;28;20050;-71
2023/08/04 09:46:03;;;;;;;1999.90;999.90;;;22.90;99.90;;;;;;5032979;28;20542;-77
2023/08/04 09:48:28;;;;;;;1999.90;999.90;;;22.40;99.90;;;;;;5032592;28;20095;-77
2023/08/04 09:51:11;;;;;;;1999.90;999.90;;;22.20;99.90;;;;;;5014961;28;20484;-71
2023/08/04 09:53:46;;;;;;;1999.90;999.90;;;22.20;99.90;;;;;;5026219;28;20510;-71
2023/08/04 09:56:13;;;;;;;1999.90;999.90;;;22.20;99.90;;;;;;5017334;28;20025;-71
2023/08/04 09:58:40;;;;;;;1999.90;999.90;;;22.60;99.90;;;;;;5014713;28;20041;-77
2023/08/04 10:01:06;;;;;;;1999.90;999.90;;;22.60;99.90;;;;;;5010346;28;20021;-77
2023/08/04 10:03:34;;;;;;;1999.90;999.90;;;22.30;99.90;;;;;;5031332;28;20109;-70
2023/08/04 10:06:02;;;;;;;1999.90;999.90;;;22.40;99.90;;;;;;5031829;28;20057;-71
2023/08/04 10:08:30;;;;;;;1999.90;999.90;;;22.50;99.90;;;;;;5014798;28;20443;-71
2023/08/04 10:10:58;;;;;;;1999.90;999.90;;;22.60;99.90;;;;;;5014435;28;20480;-71
2023/08/04 10:13:32;;;;;;;1999.90;999.90;;;22.70;99.90;;;;;;5032221;28;20034;-71
2023/08/04 10:16:00;;;;;;;1999.90;999.90;;;22.90;99.90;;;;;;5014459;28;20063;-71
2023/08/04 10:18:25;;;;;;;1999.90;999.90;;;22.60;99.90;;;;;;5014571;28;20033;-71
2023/08/04 10:20:55;;;;;;;1999.90;999.90;;;22.50;99.90;;;;;;5014080;28;20075;-70
2023/08/04 10:23:22;;;;;;;1999.90;999.90;;;23.00;99.90;;;;;;5032159;28;20492;-71
2023/08/04 10:26:02;;;;;;;1999.90;999.90;;;23.20;99.90;;;;;;5032419;28;20079;-77
2023/08/04 10:28:30;;;;;;;1999.90;999.90;;;23.10;99.90;;;;;;5032086;28;20179;-77
2023/08/04 10:31:11;;;;;;;1999.90;999.90;;;24.80;99.90;;;;;;5014274;28;20026;-71
2023/08/04 10:33:38;;;;;;;1999.90;999.90;;;25.80;99.90;;;;;;5032406;28;20033;-71
2023/08/04 10:36:08;;;;;;;1999.90;999.90;;;26.10;99.90;;;;;;5031895;28;20044;-71
2023/08/04 10:38:49;;;;;;;1999.90;999.90;;;24.80;99.90;;;;;;5032337;28;20045;-71
2023/08/04 10:41:15;;;;;;;1999.90;999.90;;;24.10;99.90;;;;;;5031656;28;20022;-71
2023/08/04 10:43:58;;;;;;;1999.90;999.90;;;23.30;99.90;;;;;;5032215;28;20045;-71
2023/08/04 10:46:24;;;;;;;1999.90;999.90;;;22.50;99.90;;;;;;5032074;28;20095;-71
2023/08/04 10:48:50;;;;;;;1999.90;999.90;;;22.20;99.90;;;;;;5032181;28;20037;-71
2023/08/04 10:51:17;;;;;;;1999.90;999.90;;;22.20;99.90;;;;;;5031704;28;20030;-71
2023/08/04 10:53:43;;;;;;;1999.90;999.90;;;22.80;99.90;;;;;;5014397;28;20076;-71
2023/08/04 10:56:09;;;;;;;1999.90;999.90;;;22.70;99.90;;;;;;5032104;28;20087;-71
2023/08/04 10:58:35;;;;;;;1999.90;999.90;;;22.40;99.90;;;;;;5031867;28;20039;-71
2023/08/04 11:01:01;;;;;;;1999.90;999.90;;;22.10;99.90;;;;;;5030994;28;20022;-71
2023/08/04 11:03:29;;;;;;;1999.90;999.90;;;22.10;99.90;;;;;;5031781;28;20037;-77
2023/08/04 11:05:56;;;;;;;1999.90;999.90;;;22.00;99.90;;;;;;5031144;28;20390;-70
2023/08/04 11:08:23;;;;;;;1999.90;999.90;;;21.80;99.90;;;;;;5014103;28;20518;-70
2023/08/04 11:10:51;;;;;;;1999.90;999.90;;;21.50;99.90;;;;;;5031432;28;20430;-70
2023/08/04 11:13:19;;;;;;;1999.90;999.90;;;20.80;99.90;;;;;;5031729;28;20028;-69
2023/08/04 11:15:45;;;;;;;1999.90;999.90;;;20.30;99.90;;;;;;5013676;28;20470;-76
2023/08/04 11:18:13;;;;;;;1999.90;999.90;;;20.00;99.90;;;;;;5034361;28;20064;-76
2023/08/04 11:20:40;;;;;;;1999.90;999.90;;;19.90;99.90;;;;;;5034770;28;20068;-70
2023/08/04 11:23:07;;;;;;;1999.90;999.90;;;19.80;99.90;;;;;;5034024;28;20045;-69
2023/08/04 11:25:36;;;;;;;1999.90;999.90;;;19.60;99.90;;;;;;5017248;28;20017;-69
2023/08/04 11:28:03;;;;;;;1999.90;999.90;;;19.50;99.90;;;;;;5034988;28;20087;-70
2023/08/04 11:30:28;;;;;;;1999.90;999.90;;;19.60;99.90;;;;;;5052529;28;20070;-77
2023/08/04 11:32:54;;;;;;;1999.90;999.90;;;19.60;99.90;;;;;;5037557;28;20037;-70
2023/08/04 11:35:20;;;;;;;1999.90;999.90;;;19.80;99.90;;;;;;5035042;28;20021;-70
2023/08/04 11:37:45;;;;;;;1999.90;999.90;;;20.20;99.90;;;;;;5034999;28;20048;-70
2023/08/04 11:40:22;;;;;;;1999.90;999.90;;;20.60;99.90;;;;;;5016807;28;20083;-71
2023/08/04 11:42:48;;;;;;;1999.90;999.90;;;20.80;99.90;;;;;;5034816;28;20049;-77
2023/08/04 11:45:14;;;;;;;1999.90;999.90;;;20.70;99.90;;;;;;5035063;28;20068;-71
2023/08/04 11:47:40;;;;;;;1999.90;999.90;;;20.40;99.90;;;;;;5034401;28;20053;-70
2023/08/04 11:50:08;;;;;;;1999.90;999.90;;;20.20;99.90;;;;;;5034515;28;20530;-71
2023/08/04 11:52:37;;;;;;;1999.90;999.90;;;20.10;99.90;;;;;;5016457;28;20025;-70
2023/08/04 11:55:04;;;;;;;1999.90;999.90;;;20.20;99.90;;;;;;5034517;28;20097;-71
2023/08/04 11:57:31;;;;;;;1999.90;999.90;;;20.40;99.90;;;;;;5032919;28;20484;-71